createdAt,value
2023-02-16T00:01:34.063Z,48.15
2023-02-16T00:04:09.521Z,49.58
2023-02-16T00:06:38.228Z,45.95
2023-02-16T00:09:06.483Z,49.05
2023-02-16T00:11:54.947Z,49.40
2023-02-16T00:14:26.330Z,47.92
2023-02-16T00:16:59.610Z,49.58
2023-02-16T00:19:29.969Z,48.75
2023-02-16T00:22:00.190Z,51.50
2023-02-16T00:24:29.779Z,51.10
2023-02-16T00:26:59.686Z,51.00
2023-02-16T00:29:31.051Z,55.22
2023-02-16T00:32:01.639Z,62.65
2023-02-16T00:34:38.763Z,68.20
2023-02-16T00:37:10.047Z,62.42
2023-02-16T00:39:40.284Z,62.92
2023-02-16T00:42:20.192Z,59.40
2023-02-16T00:44:50.917Z,57.53
2023-02-16T00:47:30.122Z,58.78
2023-02-16T00:49:58.857Z,57.22
2023-02-16T00:52:35.409Z,56.25
2023-02-16T00:55:13.448Z,54.45
2023-02-16T00:57:50.086Z,54.15
2023-02-16T01:00:32.266Z,53.92
2023-02-16T01:03:07.886Z,54.33
2023-02-16T01:05:37.697Z,53.50
2023-02-16T01:08:34.002Z,52.47
2023-02-16T01:11:04.675Z,49.97
2023-02-16T01:13:42.777Z,48.33
2023-02-16T01:16:17.857Z,49.03
2023-02-16T01:18:47.325Z,48.88
2023-02-16T01:21:16.249Z,49.45
2023-02-16T01:23:44.948Z,46.97
2023-02-16T01:26:19.517Z,46.30
2023-02-16T01:28:48.699Z,46.95
2023-02-16T01:31:19.790Z,46.80
2023-02-16T01:33:48.896Z,45.40
2023-02-16T01:36:26.580Z,45.90
2023-02-16T01:38:55.207Z,46.78
2023-02-16T01:42:03.123Z,47.05
2023-02-16T01:44:41.511Z,46.38
2023-02-16T01:47:50.220Z,44.60
2023-02-16T01:50:24.740Z,45.15
2023-02-16T01:53:00.377Z,46.65
2023-02-16T01:55:30.740Z,45.47
2023-02-16T01:58:21.419Z,45.05
2023-02-16T02:00:50.066Z,45.60
2023-02-16T02:03:53.050Z,47.13
2023-02-16T02:06:35.147Z,48.50
2023-02-16T02:09:06.888Z,49.42
2023-02-16T02:11:46.912Z,46.45
2023-02-16T02:14:24.397Z,47.60
2023-02-16T02:16:58.528Z,45.88
2023-02-16T02:19:28.647Z,44.58
2023-02-16T02:22:34.495Z,43.65
2023-02-16T02:25:09.764Z,44.88
2023-02-16T02:27:50.317Z,43.70
2023-02-16T02:30:30.998Z,42.85
2023-02-16T02:33:10.130Z,44.22
2023-02-16T02:36:00.760Z,44.10
2023-02-16T02:38:56.549Z,42.85
2023-02-16T02:41:56.769Z,43.30
2023-02-16T02:44:29.176Z,43.90
2023-02-16T02:46:57.899Z,43.55
2023-02-16T02:49:26.532Z,44.28
2023-02-16T02:51:55.069Z,46.75
2023-02-16T02:54:46.565Z,45.45
2023-02-16T03:00:34.232Z,42.83
2023-02-16T03:03:06.547Z,45.88
2023-02-16T03:05:39.420Z,44.53
2023-02-16T03:08:15.391Z,45.45
2023-02-16T03:11:08.922Z,44.47
2023-02-16T03:13:42.411Z,51.40
2023-02-16T03:16:22.678Z,51.83
2023-02-16T03:19:10.412Z,55.85
2023-02-16T03:21:59.058Z,56.47
2023-02-16T03:24:49.516Z,58.53
2023-02-16T03:27:42.864Z,57.35
2023-02-16T03:30:12.992Z,57.38
2023-02-16T03:32:41.822Z,59.38
2023-02-16T03:35:12.881Z,55.75
2023-02-16T03:37:43.078Z,61.55
2023-02-16T03:40:29.966Z,61.70
2023-02-16T03:43:09.050Z,62.33
2023-02-16T03:45:41.189Z,59.05
2023-02-16T03:48:10.393Z,58.55
2023-02-16T03:50:38.693Z,62.17
2023-02-16T03:53:07.588Z,59.05
2023-02-16T03:55:41.702Z,61.22
2023-02-16T03:58:12.653Z,60.33
2023-02-16T04:00:41.371Z,62.38
2023-02-16T04:03:10.121Z,66.63
2023-02-16T04:05:38.788Z,59.90
2023-02-16T04:08:08.518Z,66.30
2023-02-16T04:10:38.267Z,63.38
2023-02-16T04:13:07.375Z,63.97
2023-02-16T04:15:35.807Z,64.70
2023-02-16T04:18:04.571Z,64.47
2023-02-16T04:20:37.091Z,62.10
2023-02-16T04:23:06.008Z,63.50
2023-02-16T04:25:36.005Z,59.28
2023-02-16T04:28:04.802Z,53.85
2023-02-16T04:30:33.261Z,59.88
2023-02-16T04:33:02.134Z,67.20
2023-02-16T04:35:30.475Z,74.97
2023-02-16T04:37:59.027Z,65.03
2023-02-16T04:40:27.372Z,62.33
2023-02-16T04:42:56.037Z,60.13
2023-02-16T04:45:24.376Z,65.68
2023-02-16T04:47:52.984Z,57.88
2023-02-16T04:50:21.334Z,59.08
2023-02-16T04:52:49.997Z,61.47
2023-02-16T04:55:18.404Z,67.72
2023-02-16T04:57:46.990Z,65.40
2023-02-16T05:00:15.561Z,67.50
2023-02-16T05:02:44.339Z,63.50
2023-02-16T05:05:12.807Z,61.40
2023-02-16T05:07:41.431Z,80.15
2023-02-16T05:10:10.309Z,69.13
2023-02-16T05:12:57.518Z,75.10
2023-02-16T05:15:25.900Z,85.15
2023-02-16T05:17:54.998Z,99.35
2023-02-16T05:20:43.332Z,98.35
2023-02-16T05:23:13.526Z,93.68
2023-02-16T05:25:46.043Z,92.20
2023-02-16T05:28:15.160Z,92.22
2023-02-16T05:30:43.693Z,93.97
2023-02-16T05:33:12.333Z,104.47
2023-02-16T05:35:40.722Z,89.60
2023-02-16T05:38:09.295Z,89.05
2023-02-16T05:40:37.589Z,81.72
2023-02-16T05:43:06.522Z,80.65
2023-02-16T05:45:34.925Z,82.18
2023-02-16T05:48:03.495Z,82.25
2023-02-16T05:50:31.782Z,78.90
2023-02-16T05:53:01.001Z,86.97
2023-02-16T05:55:29.499Z,99.95
2023-02-16T05:58:05.612Z,99.35
2023-02-16T06:00:33.927Z,101.72
2023-02-16T06:03:02.667Z,101.35
2023-02-16T06:05:31.078Z,99.50
2023-02-16T06:07:59.816Z,100.68
2023-02-16T06:10:28.442Z,115.43
2023-02-16T06:12:57.271Z,97.22
2023-02-16T06:15:25.498Z,91.22
2023-02-16T06:17:54.054Z,90.20
2023-02-16T06:20:22.378Z,95.93
2023-02-16T06:22:50.907Z,102.32
2023-02-16T06:25:20.497Z,102.50
2023-02-16T06:27:50.180Z,109.00
2023-02-16T06:30:19.658Z,102.20
2023-02-16T06:32:48.533Z,104.07
2023-02-16T06:35:17.295Z,98.20
2023-02-16T06:37:46.052Z,101.85
2023-02-16T06:40:15.063Z,98.75
2023-02-16T06:42:44.022Z,95.22
2023-02-16T06:45:12.848Z,96.85
2023-02-16T06:47:41.725Z,95.00
2023-02-16T06:50:10.546Z,98.68
2023-02-16T06:52:39.095Z,100.03
2023-02-16T06:55:07.877Z,103.78
2023-02-16T06:57:36.498Z,104.97
2023-02-16T07:00:07.329Z,103.18
2023-02-16T07:02:35.992Z,117.10
2023-02-16T07:05:04.618Z,119.63
2023-02-16T07:07:33.155Z,111.68
2023-02-16T07:10:02.890Z,101.13
2023-02-16T07:12:31.755Z,95.32
2023-02-16T07:15:00.371Z,93.97
2023-02-16T07:17:29.147Z,91.22
2023-02-16T07:19:59.881Z,88.82
2023-02-16T07:22:29.954Z,89.57
2023-02-16T07:25:00.715Z,94.93
2023-02-16T07:27:29.452Z,94.33
2023-02-16T07:29:57.862Z,94.65
2023-02-16T07:32:27.243Z,95.43
2023-02-16T07:34:55.627Z,102.22
2023-02-16T07:37:24.283Z,104.30
2023-02-16T07:39:53.364Z,114.82
2023-02-16T07:42:22.208Z,132.50
2023-02-16T07:44:52.986Z,129.82
2023-02-16T07:47:21.743Z,125.05
2023-02-16T07:49:50.142Z,117.10
2023-02-16T07:52:18.830Z,108.60
2023-02-16T07:54:47.234Z,95.03
2023-02-16T07:57:15.794Z,84.60
2023-02-16T07:59:44.045Z,66.88
2023-02-16T08:02:17.225Z,72.65
2023-02-16T08:04:46.657Z,70.85
2023-02-16T08:07:17.324Z,73.85
2023-02-16T08:09:45.651Z,73.95
2023-02-16T08:12:16.048Z,75.00
2023-02-16T08:14:46.727Z,67.15
2023-02-16T08:17:15.968Z,68.67
2023-02-16T08:19:44.272Z,68.13
2023-02-16T08:22:12.849Z,59.67
2023-02-16T08:24:41.344Z,59.92
2023-02-16T08:27:11.139Z,56.38
2023-02-16T08:29:41.809Z,53.65
2023-02-16T08:32:14.737Z,53.92
2023-02-16T08:34:43.604Z,55.70
2023-02-16T08:37:13.885Z,54.63
2023-02-16T08:39:42.558Z,57.03
2023-02-16T08:42:13.710Z,48.90
2023-02-16T08:44:42.560Z,39.08
2023-02-16T08:47:11.792Z,33.60
2023-02-16T08:49:40.148Z,33.33
2023-02-16T08:52:10.379Z,45.38
2023-02-16T08:54:40.099Z,52.83
2023-02-16T08:57:09.469Z,49.08
2023-02-16T08:59:37.750Z,48.80
2023-02-16T09:02:06.729Z,53.58
2023-02-16T09:04:36.854Z,39.08
2023-02-16T09:07:05.738Z,47.97
2023-02-16T09:09:34.523Z,47.92
2023-02-16T09:12:03.337Z,44.22
2023-02-16T09:14:31.515Z,40.70
2023-02-16T09:17:00.153Z,45.95
2023-02-16T09:19:28.498Z,44.08
2023-02-16T09:21:57.281Z,37.88
2023-02-16T09:24:27.067Z,43.65
2023-02-16T09:26:55.886Z,34.10
2023-02-16T09:29:24.256Z,29.80
2023-02-16T09:31:57.884Z,29.55
2023-02-16T09:34:28.083Z,28.42
2023-02-16T09:36:56.833Z,38.58
2023-02-16T09:39:26.215Z,39.10
2023-02-16T09:41:54.844Z,36.20
2023-02-16T09:44:39.499Z,35.58
2023-02-16T09:47:32.234Z,37.33
2023-02-16T09:50:06.709Z,32.72
2023-02-16T09:52:40.446Z,38.65
2023-02-16T09:55:15.261Z,28.20
2023-02-16T09:57:55.848Z,37.08
2023-02-16T10:00:33.447Z,27.35
2023-02-16T10:03:41.537Z,38.17
2023-02-16T10:06:27.638Z,39.05
2023-02-16T10:09:01.043Z,38.17
2023-02-16T10:11:38.198Z,35.15
2023-02-16T10:14:31.823Z,36.60
2023-02-16T10:17:24.114Z,37.85
2023-02-16T10:19:56.427Z,38.50
2023-02-16T10:25:17.076Z,36.40
2023-02-16T10:27:50.449Z,32.33
2023-02-16T10:30:22.772Z,35.88
2023-02-16T10:35:38.418Z,35.13
2023-02-16T10:38:16.284Z,34.45
2023-02-16T10:41:26.593Z,32.38
2023-02-16T10:44:13.794Z,38.38
2023-02-16T10:46:47.479Z,32.78
2023-02-16T10:49:17.629Z,33.25
2023-02-16T10:51:50.578Z,33.70
2023-02-16T10:54:29.530Z,30.00
2023-02-16T10:57:06.842Z,34.88
2023-02-16T10:59:43.915Z,37.80
2023-02-16T11:02:23.979Z,33.00
2023-02-16T11:04:55.658Z,32.45
2023-02-16T11:07:30.372Z,29.08
2023-02-16T11:10:18.824Z,31.13
2023-02-16T11:12:57.506Z,32.42
2023-02-16T11:15:27.706Z,28.40
2023-02-16T11:17:56.312Z,31.63
2023-02-16T11:20:46.756Z,28.33
2023-02-16T11:23:33.373Z,27.67
2023-02-16T11:26:26.554Z,29.55
2023-02-16T11:29:27.822Z,28.95
2023-02-16T11:31:56.754Z,30.05
2023-02-16T11:34:43.349Z,30.00
2023-02-16T11:37:34.167Z,29.20
2023-02-16T11:40:18.510Z,28.70
2023-02-16T11:42:57.610Z,29.83
2023-02-16T11:45:31.366Z,29.35
2023-02-16T11:48:12.613Z,28.48
2023-02-16T11:50:58.381Z,26.50
2023-02-16T11:53:31.205Z,29.08
2023-02-16T11:56:13.530Z,27.83
2023-02-16T11:58:41.883Z,28.67
2023-02-16T12:01:21.599Z,29.00
2023-02-16T12:04:31.493Z,28.10
2023-02-16T12:07:16.890Z,29.90
2023-02-16T12:09:50.781Z,30.05
2023-02-16T12:12:37.602Z,28.20
2023-02-16T12:15:15.282Z,25.50
2023-02-16T12:18:03.810Z,29.48
2023-02-16T12:20:45.791Z,28.58
2023-02-16T12:23:42.099Z,27.35
2023-02-16T12:26:41.684Z,26.38
2023-02-16T12:29:18.475Z,25.33
2023-02-16T12:32:19.161Z,22.70
2023-02-16T12:35:29.616Z,21.70
2023-02-16T12:38:18.774Z,27.38
2023-02-16T12:40:58.346Z,26.92
2023-02-16T12:43:32.643Z,26.27
2023-02-16T12:46:27.208Z,28.50
2023-02-16T12:49:42.055Z,29.63
2023-02-16T12:52:21.169Z,28.90
2023-02-16T12:55:14.560Z,27.67
2023-02-16T12:57:51.782Z,30.90
2023-02-16T13:00:33.230Z,29.88
2023-02-16T13:05:53.782Z,28.30
2023-02-16T13:08:39.376Z,29.30
2023-02-16T13:11:19.294Z,28.95
2023-02-16T13:13:53.889Z,30.65
2023-02-16T13:16:30.898Z,27.15
2023-02-16T13:19:06.277Z,31.40
2023-02-16T13:21:51.218Z,32.15
2023-02-16T13:24:51.628Z,31.77
2023-02-16T13:27:31.895Z,31.58
2023-02-16T13:30:24.914Z,32.13
2023-02-16T13:32:57.725Z,31.67
2023-02-16T13:35:57.491Z,34.63
2023-02-16T13:38:58.402Z,33.08
2023-02-16T13:41:49.840Z,33.53
2023-02-16T13:44:35.142Z,34.53
2023-02-16T13:47:07.971Z,34.10
2023-02-16T13:49:43.188Z,34.97
2023-02-16T13:52:31.348Z,34.67
2023-02-16T13:55:03.426Z,34.22
2023-02-16T13:57:51.776Z,33.47
2023-02-16T14:00:38.457Z,34.53
2023-02-16T14:03:13.522Z,34.65
2023-02-16T14:05:44.875Z,32.83
2023-02-16T14:08:17.145Z,32.38
2023-02-16T14:13:32.165Z,33.25
2023-02-16T14:16:22.769Z,32.05
2023-02-16T14:19:04.814Z,32.17
2023-02-16T14:21:40.750Z,31.88
2023-02-16T14:24:29.757Z,33.45
2023-02-16T14:27:13.740Z,32.28
2023-02-16T14:30:02.917Z,33.88
2023-02-16T14:32:38.997Z,32.50
2023-02-16T14:35:34.034Z,34.10
2023-02-16T14:38:16.659Z,33.33
2023-02-16T14:41:15.927Z,33.90
2023-02-16T14:43:49.863Z,32.10
2023-02-16T14:47:08.424Z,33.75
2023-02-16T14:49:57.208Z,32.33
2023-02-16T14:53:07.883Z,34.28
2023-02-16T14:56:10.216Z,32.42
2023-02-16T14:59:06.867Z,33.47
2023-02-16T15:01:43.517Z,36.17
2023-02-16T15:04:13.204Z,35.53
2023-02-16T15:06:45.160Z,35.72
2023-02-16T15:09:24.192Z,36.90
2023-02-16T15:12:13.928Z,34.10
2023-02-16T15:15:04.765Z,34.88
2023-02-16T15:17:40.020Z,34.90
2023-02-16T15:20:10.863Z,34.47
2023-02-16T15:22:44.452Z,36.05
2023-02-16T15:25:40.840Z,34.33
2023-02-16T15:28:09.817Z,35.25
2023-02-16T15:31:08.697Z,35.63
2023-02-16T15:33:57.885Z,33.55
2023-02-16T15:36:51.524Z,34.15
2023-02-16T15:39:56.028Z,40.00
2023-02-16T15:42:34.184Z,37.53
2023-02-16T15:46:00.690Z,35.72
2023-02-16T15:48:35.184Z,39.63
2023-02-16T15:51:25.304Z,36.90
2023-02-16T15:53:57.509Z,36.28
2023-02-16T15:56:31.310Z,36.30
2023-02-16T15:59:03.793Z,36.08
2023-02-16T16:01:36.094Z,36.83
2023-02-16T16:04:23.527Z,38.30
2023-02-16T16:06:53.134Z,37.97
2023-02-16T16:09:35.709Z,39.63
2023-02-16T16:29:30.174Z,36.38
2023-02-16T16:31:59.043Z,37.08
2023-02-16T16:48:31.820Z,35.38
2023-02-16T16:51:17.400Z,39.83
2023-02-16T16:53:54.445Z,38.88
2023-02-16T16:56:24.497Z,38.15
2023-02-16T16:58:56.865Z,37.90
2023-02-16T17:01:29.036Z,37.95
2023-02-16T17:06:27.035Z,38.95
2023-02-16T17:08:55.391Z,39.53
2023-02-16T17:11:30.063Z,39.65
2023-02-16T17:14:15.741Z,43.10
2023-02-16T17:16:47.005Z,40.85
2023-02-16T17:19:17.138Z,40.90
2023-02-16T17:21:47.509Z,39.72
2023-02-16T17:24:16.602Z,38.80
2023-02-16T17:26:45.995Z,37.72
2023-02-16T17:29:16.144Z,37.25
2023-02-16T17:31:45.023Z,37.50
2023-02-16T17:34:13.957Z,39.53
2023-02-16T17:36:46.035Z,38.45
2023-02-16T17:39:15.457Z,38.75
2023-02-16T17:41:44.936Z,38.20
2023-02-16T17:44:13.267Z,39.05
2023-02-16T17:46:42.507Z,39.42
2023-02-16T17:49:12.476Z,38.05
2023-02-16T17:51:41.790Z,40.22
2023-02-16T17:54:10.380Z,38.53
2023-02-16T17:56:40.208Z,36.75
2023-02-16T17:59:36.735Z,38.97
2023-02-16T18:02:11.783Z,37.80
2023-02-16T18:04:42.984Z,39.42
2023-02-16T18:07:16.810Z,39.13
2023-02-16T18:09:46.184Z,40.28
2023-02-16T18:12:15.273Z,40.55
2023-02-16T18:14:43.608Z,38.55
2023-02-16T18:17:12.905Z,39.97
2023-02-16T18:19:41.475Z,40.95
2023-02-16T18:22:10.671Z,34.47
2023-02-16T18:24:39.168Z,39.03
2023-02-16T18:27:07.800Z,41.42
2023-02-16T18:29:36.125Z,43.25
2023-02-16T18:32:04.973Z,44.90
2023-02-16T18:34:35.172Z,39.83
2023-02-16T18:37:04.111Z,40.95
2023-02-16T18:39:32.611Z,42.83
2023-02-16T18:42:03.385Z,43.53
2023-02-16T18:44:31.993Z,43.83
2023-02-16T18:47:00.585Z,42.28
2023-02-16T18:49:28.875Z,40.22
2023-02-16T18:52:48.652Z,41.08
2023-02-16T18:55:17.396Z,42.10
2023-02-16T18:58:14.224Z,42.63
2023-02-16T19:00:43.203Z,42.08
2023-02-16T19:03:47.984Z,42.95
2023-02-16T19:09:07.026Z,40.45
2023-02-16T19:11:22.672Z,42.20
2023-02-16T19:13:54.903Z,41.70
2023-02-16T19:16:23.649Z,40.80
2023-02-16T19:19:17.767Z,45.22
2023-02-16T19:21:46.704Z,42.97
2023-02-16T19:24:15.218Z,41.40
2023-02-16T19:26:47.164Z,44.38
2023-02-16T19:29:42.024Z,47.50
2023-02-16T19:32:12.473Z,43.15
2023-02-16T19:34:41.428Z,42.45
2023-02-16T19:37:10.257Z,42.08
2023-02-16T19:39:39.717Z,40.58
2023-02-16T19:42:08.527Z,40.67
2023-02-16T19:44:48.513Z,40.80
2023-02-16T19:48:03.741Z,41.03
2023-02-16T19:50:32.064Z,41.70
2023-02-16T19:53:05.989Z,40.53
2023-02-16T19:59:24.231Z,41.38
2023-02-16T20:07:36.166Z,37.50
2023-02-16T20:10:07.194Z,39.20
2023-02-16T20:13:01.914Z,41.40
2023-02-16T20:15:30.974Z,38.35
2023-02-16T20:18:03.414Z,38.95
2023-02-16T20:20:32.340Z,40.10
2023-02-16T20:23:01.014Z,40.50
2023-02-16T20:25:33.082Z,39.58
2023-02-16T20:28:01.782Z,39.65
2023-02-16T20:30:31.128Z,38.88
2023-02-16T20:32:59.713Z,38.45
2023-02-16T20:35:28.334Z,39.50
2023-02-16T20:37:56.691Z,39.63
2023-02-16T20:40:25.616Z,39.45
2023-02-16T20:42:54.201Z,39.25
2023-02-16T20:45:23.272Z,39.80
2023-02-16T20:47:53.718Z,40.15
2023-02-16T20:50:22.608Z,40.92
2023-02-16T20:52:52.071Z,40.95
2023-02-16T20:55:21.854Z,39.17
2023-02-16T20:57:50.295Z,42.72
2023-02-16T21:00:21.878Z,45.17
2023-02-16T21:02:52.584Z,42.73
2023-02-16T21:05:22.915Z,43.78
2023-02-16T21:07:51.392Z,39.78
2023-02-16T21:10:22.203Z,40.92
2023-02-16T21:12:50.629Z,42.15
2023-02-16T21:15:22.035Z,48.42
2023-02-16T21:17:50.551Z,48.60
2023-02-16T21:20:19.408Z,46.50
2023-02-16T21:22:47.734Z,38.47
2023-02-16T21:25:16.782Z,38.25
2023-02-16T21:28:10.406Z,39.25
2023-02-16T21:30:39.423Z,38.15
2023-02-16T21:33:09.754Z,43.08
2023-02-16T21:36:34.659Z,50.92
2023-02-16T21:39:03.677Z,42.20
2023-02-16T21:41:32.957Z,37.97
2023-02-16T21:44:20.054Z,37.92
2023-02-16T21:46:50.183Z,38.10
2023-02-16T21:49:20.252Z,38.10
2023-02-16T21:51:49.702Z,37.00
2023-02-16T21:54:39.716Z,39.35
2023-02-16T21:57:08.609Z,39.20
2023-02-16T21:59:37.907Z,38.17
2023-02-16T22:02:12.979Z,39.00
2023-02-16T22:04:41.456Z,36.65
2023-02-16T22:07:10.140Z,38.35
2023-02-16T22:09:38.398Z,38.28
2023-02-16T22:12:07.249Z,39.58
2023-02-16T22:14:36.255Z,40.15
2023-02-16T22:17:14.058Z,43.72
2023-02-16T22:19:42.290Z,41.42
2023-02-16T22:22:11.621Z,39.78
2023-02-16T22:24:39.977Z,40.78
2023-02-16T22:27:08.683Z,38.50
2023-02-16T22:29:39.126Z,38.60
2023-02-16T22:32:07.809Z,37.80
2023-02-16T22:34:37.119Z,39.33
2023-02-16T22:37:05.770Z,42.55
2023-02-16T22:39:34.120Z,37.90
2023-02-16T22:42:02.909Z,39.67
2023-02-16T22:44:31.114Z,40.50
2023-02-16T22:46:59.862Z,40.65
2023-02-16T22:49:28.225Z,40.33
2023-02-16T22:51:57.781Z,38.10
2023-02-16T22:54:27.692Z,36.97
2023-02-16T22:56:57.595Z,39.55
2023-02-16T22:59:26.078Z,37.67
2023-02-16T23:01:54.627Z,39.03
2023-02-16T23:04:24.373Z,37.65
2023-02-16T23:06:53.011Z,38.20
2023-02-16T23:09:22.105Z,37.72
2023-02-16T23:11:51.137Z,39.42
2023-02-16T23:14:19.736Z,39.58
2023-02-16T23:16:54.567Z,38.80
2023-02-16T23:19:26.105Z,37.95
2023-02-16T23:21:55.312Z,38.58
2023-02-16T23:24:24.502Z,39.47
2023-02-16T23:29:35.717Z,45.28
2023-02-16T23:32:06.671Z,45.35
2023-02-16T23:34:34.956Z,42.85
2023-02-16T23:37:03.460Z,42.38
2023-02-16T23:39:31.773Z,43.00
2023-02-16T23:42:00.477Z,43.28
2023-02-16T23:44:28.819Z,39.38
2023-02-16T23:46:57.423Z,41.20
2023-02-16T23:49:25.762Z,39.45
2023-02-16T23:51:54.480Z,38.42
2023-02-16T23:54:23.022Z,36.58
2023-02-16T23:56:52.817Z,37.05
2023-02-16T23:59:21.370Z,36.28
